createdAt,value
2022-12-29T00:01:05.919Z,93.00
2022-12-29T00:03:33.136Z,93.10
2022-12-29T00:06:01.819Z,93.10
2022-12-29T00:08:40.426Z,93.20
2022-12-29T00:11:27.869Z,93.30
2022-12-29T00:14:14.210Z,93.30
2022-12-29T00:16:43.903Z,93.40
2022-12-29T00:19:32.379Z,93.50
2022-12-29T00:22:18.741Z,93.50
2022-12-29T00:25:04.893Z,93.60
2022-12-29T00:27:51.773Z,93.60
2022-12-29T00:30:41.894Z,93.70
2022-12-29T00:33:35.155Z,93.80
2022-12-29T00:36:32.373Z,93.70
2022-12-29T00:39:21.768Z,93.80
2022-12-29T00:42:08.114Z,93.80
2022-12-29T00:44:35.348Z,93.90
2022-12-29T00:47:05.476Z,93.90
2022-12-29T00:49:32.950Z,93.90
2022-12-29T00:52:06.154Z,93.90
2022-12-29T00:54:37.511Z,94.00
2022-12-29T00:57:06.395Z,94.20
2022-12-29T00:59:39.628Z,94.30
2022-12-29T01:02:07.778Z,94.40
2022-12-29T01:04:35.339Z,94.50
2022-12-29T01:07:02.599Z,94.60
2022-12-29T01:09:48.722Z,94.90
2022-12-29T01:12:15.803Z,95.00
2022-12-29T01:14:42.886Z,94.90
2022-12-29T01:17:09.959Z,94.90
2022-12-29T01:19:37.052Z,94.90
2022-12-29T01:22:04.172Z,94.80
2022-12-29T01:24:31.283Z,94.80
2022-12-29T01:26:58.353Z,94.90
2022-12-29T01:29:25.603Z,94.90
2022-12-29T01:31:52.712Z,94.90
2022-12-29T01:34:19.814Z,94.90
2022-12-29T01:36:46.860Z,94.90
2022-12-29T01:39:14.382Z,95.00
2022-12-29T01:41:41.812Z,95.00
2022-12-29T01:44:46.631Z,95.10
2022-12-29T01:47:19.235Z,95.10
2022-12-29T01:49:46.356Z,95.20
2022-12-29T01:52:13.699Z,95.30
2022-12-29T01:54:47.376Z,95.40
2022-12-29T01:57:20.344Z,95.40
2022-12-29T01:59:55.901Z,95.40
2022-12-29T02:02:23.125Z,96.10
2022-12-29T02:04:50.260Z,96.10
2022-12-29T02:07:23.612Z,96.20
2022-12-29T02:09:52.579Z,96.30
2022-12-29T02:12:21.506Z,96.60
2022-12-29T02:14:51.092Z,96.50
2022-12-29T02:17:21.208Z,96.60
2022-12-29T02:20:06.356Z,96.60
2022-12-29T02:23:07.953Z,96.70
2022-12-29T02:26:01.882Z,96.80
2022-12-29T02:28:54.508Z,96.90
2022-12-29T02:31:43.835Z,97.00
2022-12-29T02:34:43.252Z,97.00
2022-12-29T02:37:16.908Z,97.10
2022-12-29T02:39:51.284Z,97.10
2022-12-29T02:42:49.771Z,97.00
2022-12-29T02:45:44.955Z,97.00
2022-12-29T02:48:23.041Z,97.00
2022-12-29T02:51:03.688Z,97.00
2022-12-29T02:53:51.968Z,97.00
2022-12-29T02:56:19.208Z,97.00
2022-12-29T02:58:46.268Z,96.90
2022-12-29T03:01:30.597Z,97.10
2022-12-29T03:04:12.571Z,96.90
2022-12-29T03:07:05.905Z,96.90
2022-12-29T03:09:55.152Z,96.90
2022-12-29T03:12:52.843Z,96.80
2022-12-29T03:16:03.109Z,96.90
2022-12-29T03:18:45.157Z,96.80
2022-12-29T03:21:15.179Z,96.90
2022-12-29T03:23:44.791Z,97.00
2022-12-29T03:26:13.753Z,97.00
2022-12-29T03:28:47.114Z,96.90
2022-12-29T03:31:15.137Z,97.00
2022-12-29T03:33:44.183Z,97.10
2022-12-29T03:36:31.019Z,97.10
2022-12-29T03:39:07.593Z,97.20
2022-12-29T03:41:37.272Z,97.20
2022-12-29T03:44:07.341Z,97.20
2022-12-29T03:46:34.557Z,97.20
2022-12-29T03:49:01.661Z,97.30
2022-12-29T03:51:28.720Z,97.20
2022-12-29T03:53:56.022Z,97.30
2022-12-29T03:56:23.167Z,97.40
2022-12-29T03:58:50.233Z,97.50
2022-12-29T04:01:17.557Z,97.40
2022-12-29T04:03:45.398Z,97.50
2022-12-29T04:06:12.725Z,97.50
2022-12-29T04:08:39.779Z,97.40
2022-12-29T04:11:06.912Z,97.20
2022-12-29T04:13:34.592Z,97.20
2022-12-29T04:16:01.747Z,97.30
2022-12-29T04:18:28.961Z,97.50
2022-12-29T04:21:02.117Z,97.20
2022-12-29T04:23:31.629Z,97.30
2022-12-29T04:25:59.145Z,97.30
2022-12-29T04:28:26.620Z,97.30
2022-12-29T04:30:54.081Z,97.30
2022-12-29T04:33:21.716Z,97.30
2022-12-29T04:35:48.938Z,97.70
2022-12-29T04:38:16.626Z,97.40
2022-12-29T04:40:44.684Z,97.20
2022-12-29T04:43:12.716Z,97.30
2022-12-29T04:45:43.748Z,97.30
2022-12-29T04:48:11.219Z,97.40
2022-12-29T04:50:38.354Z,97.40
2022-12-29T04:53:05.847Z,97.40
2022-12-29T04:55:33.299Z,97.40
2022-12-29T04:58:00.409Z,97.60
2022-12-29T05:00:27.503Z,97.70
2022-12-29T05:02:54.669Z,97.80
2022-12-29T05:05:21.816Z,97.80
2022-12-29T05:07:48.924Z,97.80
2022-12-29T05:10:16.053Z,98.10
2022-12-29T05:12:43.116Z,97.90
2022-12-29T05:15:11.411Z,97.90
2022-12-29T05:17:38.529Z,98.00
2022-12-29T05:20:06.686Z,98.00
2022-12-29T05:22:33.756Z,98.00
2022-12-29T05:25:00.895Z,98.00
2022-12-29T05:27:28.045Z,98.00
2022-12-29T05:29:55.316Z,97.90
2022-12-29T05:32:22.673Z,97.90
2022-12-29T05:34:49.764Z,97.90
2022-12-29T05:37:16.858Z,97.90
2022-12-29T05:39:45.444Z,98.00
2022-12-29T05:42:12.518Z,98.00
2022-12-29T05:44:39.635Z,98.00
2022-12-29T05:47:06.784Z,98.00
2022-12-29T05:49:34.000Z,98.00
2022-12-29T05:52:01.061Z,98.00
2022-12-29T05:54:28.121Z,98.00
2022-12-29T05:56:55.209Z,98.10
2022-12-29T05:59:22.395Z,98.10
2022-12-29T06:01:50.299Z,98.10
2022-12-29T06:04:17.748Z,98.10
2022-12-29T06:06:44.859Z,97.90
2022-12-29T06:09:12.009Z,97.90
2022-12-29T06:11:39.178Z,97.90
2022-12-29T06:14:06.245Z,97.90
2022-12-29T06:16:33.328Z,97.90
2022-12-29T06:19:00.440Z,97.90
2022-12-29T06:21:27.478Z,98.00
2022-12-29T06:23:54.732Z,98.10
2022-12-29T06:26:21.808Z,98.20
2022-12-29T06:28:48.903Z,98.30
2022-12-29T06:31:16.112Z,98.40
2022-12-29T06:33:45.219Z,98.50
2022-12-29T06:36:15.371Z,98.80
2022-12-29T06:38:42.528Z,98.50
2022-12-29T06:41:09.573Z,98.60
2022-12-29T06:43:38.979Z,98.60
2022-12-29T06:46:06.478Z,98.60
2022-12-29T06:48:33.657Z,98.60
2022-12-29T06:51:01.251Z,98.60
2022-12-29T06:53:28.491Z,98.70
2022-12-29T06:55:57.458Z,99.00
2022-12-29T06:58:24.694Z,98.80
2022-12-29T07:00:51.870Z,98.90
2022-12-29T07:03:19.047Z,98.90
2022-12-29T07:05:46.126Z,98.70
2022-12-29T07:08:13.287Z,98.70
2022-12-29T07:10:40.361Z,98.70
2022-12-29T07:13:08.687Z,98.70
2022-12-29T07:15:37.894Z,98.70
2022-12-29T07:18:05.301Z,98.80
2022-12-29T07:20:32.778Z,98.70
2022-12-29T07:22:59.883Z,98.60
2022-12-29T07:25:26.966Z,98.70
2022-12-29T07:27:54.894Z,98.70
2022-12-29T07:30:21.984Z,98.80
2022-12-29T07:32:49.080Z,98.60
2022-12-29T07:35:16.184Z,98.50
2022-12-29T07:37:44.850Z,98.50
2022-12-29T07:40:12.401Z,98.60
2022-12-29T07:42:39.535Z,98.60
2022-12-29T07:45:07.183Z,98.50
2022-12-29T07:47:34.252Z,98.50
2022-12-29T07:50:01.488Z,98.40
2022-12-29T07:52:28.571Z,98.40
2022-12-29T07:54:55.696Z,98.40
2022-12-29T07:57:27.994Z,98.60
2022-12-29T07:59:58.578Z,97.70
2022-12-29T08:02:27.319Z,84.80
2022-12-29T08:04:54.727Z,88.30
2022-12-29T08:07:22.201Z,91.80
2022-12-29T08:09:49.284Z,92.10
2022-12-29T08:12:16.424Z,92.70
2022-12-29T08:14:43.515Z,92.90
2022-12-29T08:17:11.015Z,93.30
2022-12-29T08:19:38.864Z,93.60
2022-12-29T08:22:05.944Z,93.70
2022-12-29T08:24:32.996Z,93.80
2022-12-29T08:27:03.385Z,94.00
2022-12-29T08:29:36.206Z,94.10
2022-12-29T08:32:03.433Z,94.20
2022-12-29T08:34:32.096Z,94.20
2022-12-29T08:36:59.273Z,94.20
2022-12-29T08:39:26.337Z,94.20
2022-12-29T08:41:53.387Z,94.20
2022-12-29T08:44:20.505Z,94.30
2022-12-29T08:46:47.709Z,94.30
2022-12-29T08:49:14.994Z,94.30
2022-12-29T08:51:42.092Z,94.30
2022-12-29T08:54:09.225Z,94.30
2022-12-29T08:56:36.382Z,94.30
2022-12-29T08:59:03.448Z,94.20
2022-12-29T09:01:31.420Z,94.20
2022-12-29T09:04:16.554Z,94.20
2022-12-29T09:06:45.849Z,94.10
2022-12-29T09:09:13.786Z,94.00
2022-12-29T09:11:41.000Z,93.90
2022-12-29T09:14:08.155Z,93.80
2022-12-29T09:16:36.300Z,93.70
2022-12-29T09:19:04.223Z,93.60
2022-12-29T09:21:31.569Z,93.50
2022-12-29T09:23:58.770Z,93.50
2022-12-29T09:26:25.882Z,93.50
2022-12-29T09:28:52.962Z,93.50
2022-12-29T09:31:20.055Z,93.40
2022-12-29T09:33:47.547Z,93.40
2022-12-29T09:36:14.706Z,93.40
2022-12-29T09:38:41.812Z,93.30
2022-12-29T09:41:27.721Z,93.20
2022-12-29T09:44:29.378Z,93.20
2022-12-29T09:46:58.104Z,93.10
2022-12-29T09:49:36.560Z,93.20
2022-12-29T09:52:32.642Z,92.90
2022-12-29T09:55:13.805Z,92.80
2022-12-29T09:57:55.231Z,92.80
2022-12-29T10:00:24.863Z,92.70
2022-12-29T10:02:58.365Z,92.70
2022-12-29T10:05:37.933Z,92.50
2022-12-29T10:08:18.631Z,92.40
2022-12-29T10:11:18.755Z,92.50
2022-12-29T10:14:15.845Z,92.50
2022-12-29T10:17:16.447Z,92.70
2022-12-29T10:19:43.461Z,92.50
2022-12-29T10:22:39.868Z,92.40
2022-12-29T10:25:32.859Z,92.40
2022-12-29T10:28:05.112Z,92.50
2022-12-29T10:30:35.071Z,92.50
2022-12-29T10:33:12.944Z,92.60
2022-12-29T10:35:41.514Z,92.70
2022-12-29T10:38:39.748Z,92.70
2022-12-29T10:41:13.825Z,92.60
2022-12-29T10:43:48.036Z,92.50
2022-12-29T10:46:19.769Z,92.60
2022-12-29T10:48:47.636Z,92.60
2022-12-29T10:51:25.168Z,92.50
2022-12-29T10:54:21.669Z,92.40
2022-12-29T10:56:54.855Z,92.40
2022-12-29T10:59:24.681Z,92.40
2022-12-29T11:02:09.956Z,92.30
2022-12-29T11:05:08.431Z,92.30
2022-12-29T11:07:36.143Z,92.20
2022-12-29T11:10:33.679Z,92.20
2022-12-29T11:13:11.894Z,92.10
2022-12-29T11:15:47.291Z,92.20
2022-12-29T11:18:38.827Z,92.50
2022-12-29T11:21:24.845Z,92.40
2022-12-29T11:24:00.862Z,92.40
2022-12-29T11:26:33.765Z,92.40
2022-12-29T11:29:16.177Z,92.40
2022-12-29T11:31:45.017Z,92.30
2022-12-29T11:34:38.500Z,92.40
2022-12-29T11:37:11.934Z,92.50
2022-12-29T11:39:59.378Z,92.80
2022-12-29T11:42:37.471Z,92.60
2022-12-29T11:45:11.180Z,92.60
2022-12-29T11:47:38.461Z,92.60
2022-12-29T11:50:08.013Z,92.50
2022-12-29T11:52:40.333Z,92.60
2022-12-29T11:55:19.604Z,92.60
2022-12-29T11:57:47.175Z,92.60
2022-12-29T12:00:24.584Z,92.60
2022-12-29T12:03:16.490Z,92.60
2022-12-29T12:05:59.218Z,92.90
2022-12-29T12:08:38.086Z,92.60
2022-12-29T12:11:09.495Z,92.70
2022-12-29T12:14:16.940Z,92.90
2022-12-29T12:17:03.403Z,93.10
2022-12-29T12:19:42.814Z,93.10
2022-12-29T12:22:33.941Z,93.20
2022-12-29T12:25:15.931Z,92.90
2022-12-29T12:28:02.428Z,92.70
2022-12-29T12:30:39.983Z,92.50
2022-12-29T12:33:16.760Z,92.50
2022-12-29T12:36:11.484Z,92.30
2022-12-29T12:39:00.347Z,92.30
2022-12-29T12:41:54.051Z,92.20
2022-12-29T12:44:44.588Z,92.20
2022-12-29T12:47:31.830Z,92.10
2022-12-29T12:50:25.111Z,91.50
2022-12-29T12:52:55.139Z,91.50
2022-12-29T12:55:37.324Z,91.20
2022-12-29T12:58:26.958Z,91.10
2022-12-29T13:01:19.138Z,91.00
2022-12-29T13:04:23.990Z,90.40
2022-12-29T13:07:22.449Z,90.40
2022-12-29T13:10:31.024Z,87.60
2022-12-29T13:13:18.980Z,87.70
2022-12-29T13:15:58.477Z,86.70
2022-12-29T13:19:00.977Z,86.20
2022-12-29T13:22:00.207Z,85.80
2022-12-29T13:25:08.060Z,80.70
2022-12-29T13:27:44.385Z,78.10
2022-12-29T13:30:16.702Z,72.10
2022-12-29T13:33:22.034Z,73.60
2022-12-29T13:36:06.960Z,69.90
2022-12-29T13:38:41.119Z,70.70
2022-12-29T13:41:25.872Z,73.00
2022-12-29T13:43:55.013Z,73.20
2022-12-29T13:46:32.144Z,73.30
2022-12-29T13:49:17.219Z,74.60
2022-12-29T13:51:51.939Z,75.60
2022-12-29T13:54:30.429Z,76.20
2022-12-29T13:57:27.893Z,77.20
2022-12-29T14:00:05.002Z,76.80
2022-12-29T14:02:47.086Z,74.30
2022-12-29T14:05:23.547Z,74.30
2022-12-29T14:08:02.106Z,75.10
2022-12-29T14:10:37.583Z,74.50
2022-12-29T14:13:13.761Z,70.80
2022-12-29T14:15:43.483Z,71.20
2022-12-29T14:18:45.951Z,73.30
2022-12-29T14:21:28.798Z,75.10
2022-12-29T14:24:21.884Z,76.00
2022-12-29T14:26:48.981Z,76.90
2022-12-29T14:29:25.413Z,79.00
2022-12-29T14:31:55.411Z,78.70
2022-12-29T14:34:22.476Z,78.50
2022-12-29T14:36:59.659Z,78.10
2022-12-29T14:39:39.664Z,78.00
2022-12-29T14:42:09.464Z,78.40
2022-12-29T14:44:51.631Z,79.10
2022-12-29T14:47:27.993Z,78.90
2022-12-29T14:49:55.578Z,79.90
2022-12-29T14:52:26.327Z,80.40
2022-12-29T14:55:33.603Z,80.20
2022-12-29T14:58:02.900Z,80.60
2022-12-29T15:00:36.528Z,80.70
2022-12-29T15:03:25.253Z,81.00
2022-12-29T15:06:09.830Z,81.00
2022-12-29T15:09:24.209Z,81.60
2022-12-29T15:12:20.597Z,81.90
2022-12-29T15:14:56.679Z,82.40
2022-12-29T15:17:29.965Z,82.80
2022-12-29T15:20:01.544Z,82.30
2022-12-29T15:22:28.735Z,81.60
2022-12-29T15:24:57.620Z,80.50
2022-12-29T15:27:27.788Z,81.20
2022-12-29T15:30:04.530Z,79.80
2022-12-29T15:32:43.205Z,81.00
2022-12-29T15:35:33.787Z,81.10
2022-12-29T15:38:04.163Z,81.40
2022-12-29T15:40:33.588Z,81.70
2022-12-29T15:43:46.685Z,81.70
2022-12-29T15:46:15.141Z,81.90
2022-12-29T15:48:42.988Z,82.00
2022-12-29T15:51:32.017Z,82.30
2022-12-29T15:53:59.340Z,82.80
2022-12-29T15:56:30.379Z,83.50
2022-12-29T15:58:57.728Z,83.80
2022-12-29T16:01:35.431Z,84.40
2022-12-29T16:04:07.405Z,84.70
2022-12-29T16:06:54.608Z,85.50
2022-12-29T16:09:36.033Z,86.20
2022-12-29T16:12:15.072Z,86.60
2022-12-29T16:14:45.881Z,86.90
2022-12-29T16:17:16.688Z,87.40
2022-12-29T16:20:00.099Z,87.90
2022-12-29T16:22:40.668Z,87.90
2022-12-29T16:25:32.478Z,88.50
2022-12-29T16:28:00.732Z,88.90
2022-12-29T16:30:34.090Z,88.90
2022-12-29T16:33:06.439Z,89.00
2022-12-29T16:35:45.814Z,89.00
2022-12-29T16:38:22.504Z,89.50
2022-12-29T16:40:56.681Z,89.90
2022-12-29T16:43:35.078Z,89.80
2022-12-29T16:46:02.222Z,89.90
2022-12-29T16:48:36.833Z,90.00
2022-12-29T16:51:15.333Z,90.00
2022-12-29T16:53:49.053Z,90.20
2022-12-29T16:56:39.626Z,90.20
2022-12-29T16:59:30.101Z,90.20
2022-12-29T17:02:00.039Z,90.30
2022-12-29T17:04:27.441Z,90.20
2022-12-29T17:06:54.522Z,90.30
2022-12-29T17:09:24.547Z,90.20
2022-12-29T17:12:02.888Z,90.20
2022-12-29T17:14:54.812Z,90.30
2022-12-29T17:17:49.066Z,90.40
2022-12-29T17:20:23.509Z,90.40
2022-12-29T17:22:53.983Z,90.40
2022-12-29T17:25:27.310Z,90.40
2022-12-29T17:28:01.988Z,90.30
2022-12-29T17:30:33.882Z,90.20
2022-12-29T17:33:05.111Z,90.20
2022-12-29T17:35:32.542Z,90.20
2022-12-29T17:37:59.585Z,90.20
2022-12-29T17:40:32.548Z,90.10
2022-12-29T17:43:00.248Z,90.10
2022-12-29T17:45:30.290Z,90.10
2022-12-29T17:47:59.967Z,90.00
2022-12-29T17:50:29.797Z,90.00
2022-12-29T17:53:01.797Z,90.00
2022-12-29T17:55:36.887Z,90.00
2022-12-29T17:58:32.971Z,90.00
2022-12-29T18:01:01.597Z,89.80
2022-12-29T18:03:35.272Z,89.70
2022-12-29T18:06:06.384Z,89.60
2022-12-29T18:08:36.645Z,89.50
2022-12-29T18:11:04.889Z,89.60
2022-12-29T18:13:44.029Z,90.00
2022-12-29T18:16:14.053Z,90.10
2022-12-29T18:18:41.337Z,89.80
2022-12-29T18:21:18.632Z,89.70
2022-12-29T18:23:47.036Z,89.80
2022-12-29T18:26:27.105Z,90.00
2022-12-29T18:28:56.206Z,90.10
2022-12-29T18:31:25.982Z,90.20
2022-12-29T18:33:54.732Z,90.20
2022-12-29T18:36:22.747Z,90.10
2022-12-29T18:38:51.753Z,90.20
2022-12-29T18:41:30.337Z,90.20
2022-12-29T18:43:58.485Z,90.30
2022-12-29T18:46:25.734Z,90.20
2022-12-29T18:48:53.629Z,90.20
2022-12-29T18:51:23.435Z,90.20
2022-12-29T18:53:53.734Z,90.20
2022-12-29T18:56:22.414Z,90.20
2022-12-29T18:58:49.945Z,90.10
2022-12-29T19:01:27.583Z,90.00
2022-12-29T19:03:54.979Z,90.00
2022-12-29T19:06:22.457Z,90.00
2022-12-29T19:08:49.822Z,89.90
2022-12-29T19:11:17.763Z,90.00
2022-12-29T19:13:45.027Z,89.80
2022-12-29T19:16:21.749Z,90.10
2022-12-29T19:19:05.690Z,90.20
2022-12-29T19:21:36.341Z,90.20
2022-12-29T19:24:03.799Z,90.40
2022-12-29T19:26:35.164Z,90.40
2022-12-29T19:29:02.974Z,90.50
2022-12-29T19:31:30.343Z,90.70
2022-12-29T19:33:57.440Z,91.00
2022-12-29T19:36:26.049Z,91.10
2022-12-29T19:38:54.002Z,91.00
2022-12-29T19:41:21.458Z,91.10
2022-12-29T19:43:48.543Z,90.90
2022-12-29T19:46:18.028Z,91.00
2022-12-29T19:48:45.199Z,91.00
2022-12-29T19:51:16.956Z,91.00
2022-12-29T19:53:45.560Z,91.00
2022-12-29T19:56:14.170Z,91.00
2022-12-29T19:58:47.017Z,90.90
2022-12-29T20:01:21.208Z,90.80
2022-12-29T20:03:49.524Z,90.80
2022-12-29T20:06:17.346Z,90.70
2022-12-29T20:08:44.729Z,90.50
2022-12-29T20:11:14.677Z,90.40
2022-12-29T20:13:43.035Z,90.40
2022-12-29T20:16:14.545Z,90.40
2022-12-29T20:18:42.752Z,90.60
2022-12-29T20:21:17.109Z,90.20
2022-12-29T20:23:45.410Z,90.00
2022-12-29T20:26:24.958Z,89.50
2022-12-29T20:28:52.821Z,89.40
2022-12-29T20:31:27.498Z,89.20
2022-12-29T20:33:54.829Z,89.30
2022-12-29T20:36:28.478Z,89.20
2022-12-29T20:38:57.607Z,89.00
2022-12-29T20:41:24.826Z,88.90
2022-12-29T20:43:55.447Z,88.70
2022-12-29T20:46:28.062Z,89.00
2022-12-29T20:48:59.925Z,89.40
2022-12-29T20:51:27.691Z,89.40
2022-12-29T20:53:54.851Z,89.80
2022-12-29T20:56:25.702Z,89.60
2022-12-29T20:59:26.406Z,89.50
2022-12-29T21:01:41.604Z,89.40
2022-12-29T21:04:08.975Z,89.50
2022-12-29T21:06:36.511Z,89.40
2022-12-29T21:09:04.673Z,89.40
2022-12-29T21:11:32.094Z,89.50
2022-12-29T21:14:01.199Z,89.50
2022-12-29T21:16:28.964Z,89.60
2022-12-29T21:18:56.133Z,89.90
2022-12-29T21:21:25.610Z,90.00
2022-12-29T21:23:53.707Z,90.10
2022-12-29T21:26:23.690Z,90.10
2022-12-29T21:28:51.322Z,90.10
2022-12-29T21:31:27.203Z,89.90
2022-12-29T21:33:55.429Z,89.70
2022-12-29T21:36:22.874Z,89.60
2022-12-29T21:38:50.053Z,89.50
2022-12-29T21:41:17.552Z,89.50
2022-12-29T21:44:08.394Z,89.30
2022-12-29T21:46:38.360Z,89.30
2022-12-29T21:49:06.493Z,89.10
2022-12-29T21:51:53.566Z,88.90
2022-12-29T21:54:46.915Z,89.10
2022-12-29T21:57:35.027Z,89.10
2022-12-29T22:00:21.373Z,89.60
2022-12-29T22:03:07.318Z,88.80
2022-12-29T22:05:53.117Z,88.70
2022-12-29T22:08:38.872Z,88.50
2022-12-29T22:11:27.731Z,88.30
2022-12-29T22:13:56.222Z,88.30
2022-12-29T22:16:24.904Z,88.50
2022-12-29T22:18:52.432Z,89.20
2022-12-29T22:21:19.873Z,90.00
2022-12-29T22:23:46.966Z,87.20
2022-12-29T22:26:14.969Z,85.20
2022-12-29T22:28:43.823Z,82.30
2022-12-29T22:31:29.045Z,87.00
2022-12-29T22:33:57.817Z,84.00
2022-12-29T22:36:25.863Z,84.10
2022-12-29T22:38:53.049Z,84.50
2022-12-29T22:41:20.501Z,84.80
2022-12-29T22:43:47.595Z,85.50
2022-12-29T22:46:14.799Z,86.50
2022-12-29T22:48:42.006Z,86.00
2022-12-29T22:51:09.418Z,85.90
2022-12-29T22:53:36.636Z,86.40
2022-12-29T22:56:09.850Z,86.60
2022-12-29T22:58:40.867Z,86.70
2022-12-29T23:01:09.183Z,86.80
2022-12-29T23:03:37.052Z,87.00
2022-12-29T23:06:07.281Z,86.60
2022-12-29T23:08:36.467Z,87.00
2022-12-29T23:11:05.218Z,87.20
2022-12-29T23:13:32.357Z,87.60
2022-12-29T23:15:59.940Z,87.90
2022-12-29T23:18:27.502Z,87.90
2022-12-29T23:20:54.785Z,87.70
2022-12-29T23:23:48.177Z,87.90
2022-12-29T23:26:21.090Z,88.40
2022-12-29T23:28:48.475Z,88.40
2022-12-29T23:31:16.373Z,88.20
2022-12-29T23:33:43.543Z,88.50
2022-12-29T23:36:10.658Z,88.70
2022-12-29T23:38:37.728Z,88.90
2022-12-29T23:41:04.950Z,88.80
2022-12-29T23:43:32.120Z,88.60
2022-12-29T23:46:04.720Z,88.80
2022-12-29T23:48:31.788Z,88.90
2022-12-29T23:50:58.844Z,89.00
2022-12-29T23:53:26.151Z,89.20
2022-12-29T23:55:55.533Z,88.50
2022-12-29T23:58:23.208Z,88.40
